Aviation Digital Data Service (ADDS)

Output produced by METARs form (1938 UTC 25 March 2017)
found at http://www.aviationweather.gov/adds/metars/
 
HUEN 251900Z 32008KT 9999 FEW018 FEW020CB BKN100 19/17 Q1020.2 NOSIG
TAF HUEN 251700Z 2518/2624 30012KT 9000 TSRA SCT019 FEW021CB BKN110 
     BECMG 2521/2524 33008KT 8000 -TSRA SCT018 FEW020CB BKN100 
     TEMPO 2601/2606 VRB12KT 7000 TSRA SCT017 FEW019CB OVC100 
     BECMG 2607/2612 18009KT 9999 FEW023 FEW025CB SCT180 FM 261700 23005KT 9000 FEW021 FEW023CB BKN120 
     BECMG 2621/2624 33007KT 8000 -TSRA SCT019 FEW021CB BKN110
       
TAF HUSO 250445Z 2506/2606 18003KT 9999 FEW020 BKN300 
     BECMG 2509/2514 34004KT SCT023 FEW025CB 
     BECMG 2516/2520 21003KT TS FEW021 FEW0 
       
HUEN 251900Z 32008KT 9999 FEW018 FEW020CB BKN100 19/17 Q1020.2 NOSIG
TAF HUEN 251700Z 2518/2624 30012KT 9000 TSRA SCT019 FEW021CB BKN110 
     BECMG 2521/2524 33008KT 8000 -TSRA SCT018 FEW020CB BKN100 
     TEMPO 2601/2606 VRB12KT 7000 TSRA SCT017 FEW019CB OVC100 
     BECMG 2607/2612 18009KT 9999 FEW023 FEW025CB SCT180 FM 261700 23005KT 9000 FEW021 FEW023CB BKN120 
     BECMG 2621/2624 33007KT 8000 -TSRA SCT019 FEW021CB BKN110
       
TAF HUSO 250445Z 2506/2606 18003KT 9999 FEW020 BKN300 
     BECMG 2509/2514 34004KT SCT023 FEW025CB 
     BECMG 2516/2520 21003KT TS FEW021 FEW0